Rome Ciampino, Italy

1:20 AM CEST on October 02, 2016 (GMT +0200)
Ciampino | | Change Station
Active Advisory: >>

Elev 348 ft 41.81 °N, 12.60 °E | Updated 39 seconds ago

Overcast
Overcast
70.2 °F
Feels Like 70.2 °F
N
3.1
Wind Variable Wind from SE
Gusts 8.3 mph

Today
High -- | Low -- °F
--% Chance of Precip.
Yesterday
High -- | Low -- °F
Precip. -- in
Pressure 29.95 in
Visibility 2.5 miles
Clouds Scattered Clouds 1500 ft
Few 2500 ft
Mostly Cloudy 4500 ft
Dew Point 65 °F
Humidity 83%
Rainfall 0.00 in
Snow Depth Not available.
7:08 AM 6:49 PM
New Moon, 1% visible
SPECI LIRE 012309Z 11014KT 4000 +TSRA SCT015 FEW025CB BKN045 19/18 Q1014 RMK OVC VIS MIN 4000 WIND THR13 12012KT WIND THR31 13013KT GRN
Pressure 29.95 in
Visibility 2.5 miles
Clouds Scattered Clouds 1500 ft
Few 2500 ft
Mostly Cloudy 4500 ft
Dew Point 65 °F
Humidity 83%
Rainfall 0.00 in
Snow Depth Not available.
7:08 AM 6:49 PM
New Moon, 1% visible
SPECI LIRE 012309Z 11014KT 4000 +TSRA SCT015 FEW025CB BKN045 19/18 Q1014 RMK OVC VIS MIN 4000 WIND THR13 12012KT WIND THR31 13013KT GRN

10-Day Weather Forecast

×

Almanac

Astronomy

Oct. 02, 2016 Rise Set
Actual Time
Civil Twilight
Nautical Twilight
Astronomical Twilight
Moon
Length of Visible Light
Length of Day
Tomorrow will be .
, % of the Moon is Illuminated

Today's Extremes

Country Highs Country Lows

Community

WunderPhotos

Upload Photos

1,943,048 photos uploaded!

WunderBlog® & News

Nearby

Air Quality

  Air Quality AQ Index Pollutant
Not available.

Snow Depth

Station Depth Elevation

Earthquake Activity

City Distance Mag. Time & Date
Minimum magnitude displayed is 2.5.

Coastal Water Temperatures

Place Temperature

Stations

Nearby Weather Stations

Station Location Temp. Windchill Dew Point Humidity Wind Precip. Elev Updated Type